createdAt,value
2022-12-12T00:01:18.589Z,76.27
2022-12-12T00:04:22.469Z,76.43
2022-12-12T00:07:26.290Z,76.41
2022-12-12T00:10:30.268Z,76.20
2022-12-12T00:13:35.000Z,76.45
2022-12-12T00:16:40.369Z,74.92
2022-12-12T00:19:44.409Z,74.27
2022-12-12T00:22:48.309Z,73.60
2022-12-12T00:25:57.110Z,73.15
2022-12-12T00:29:02.052Z,72.94
2022-12-12T00:32:07.535Z,72.99
2022-12-12T00:35:11.798Z,73.00
2022-12-12T00:38:15.938Z,71.67
2022-12-12T00:41:20.276Z,72.82
2022-12-12T00:44:24.030Z,72.52
2022-12-12T00:47:29.229Z,73.48
2022-12-12T00:50:33.850Z,72.89
2022-12-12T00:53:38.036Z,72.36
2022-12-12T00:56:42.236Z,71.80
2022-12-12T00:59:46.021Z,72.18
2022-12-12T01:02:51.395Z,72.16
2022-12-12T01:05:55.049Z,71.98
2022-12-12T01:08:58.956Z,72.62
2022-12-12T01:12:02.716Z,71.57
2022-12-12T01:15:09.035Z,71.10
2022-12-12T01:18:14.449Z,71.63
2022-12-12T01:21:20.005Z,73.00
2022-12-12T01:24:23.607Z,73.58
2022-12-12T01:27:27.499Z,73.67
2022-12-12T01:30:31.337Z,74.94
2022-12-12T01:33:36.870Z,75.41
2022-12-12T01:36:40.539Z,73.83
2022-12-12T01:39:44.138Z,73.70
2022-12-12T01:42:48.055Z,72.92
2022-12-12T01:46:42.477Z,73.21
2022-12-12T01:49:51.396Z,73.92
2022-12-12T01:52:55.181Z,73.54
2022-12-12T01:56:00.456Z,73.69
2022-12-12T01:59:06.995Z,73.54
2022-12-12T02:02:11.965Z,72.57
2022-12-12T02:05:25.176Z,72.17
2022-12-12T02:08:29.654Z,72.40
2022-12-12T02:11:34.671Z,72.62
2022-12-12T02:14:42.218Z,73.28
2022-12-12T02:18:02.235Z,72.08
2022-12-12T02:21:18.670Z,72.18
2022-12-12T02:24:56.369Z,72.67
2022-12-12T02:28:29.673Z,72.68
2022-12-12T02:31:42.026Z,72.21
2022-12-12T02:34:51.832Z,71.35
2022-12-12T02:38:05.371Z,71.69
2022-12-12T02:41:19.522Z,70.65
2022-12-12T02:44:30.299Z,70.44
2022-12-12T02:47:40.308Z,69.69
2022-12-12T02:50:45.890Z,69.14
2022-12-12T02:53:49.496Z,69.49
2022-12-12T02:56:56.377Z,69.93
2022-12-12T03:00:03.532Z,70.28
2022-12-12T03:03:47.330Z,69.99
2022-12-12T03:07:21.516Z,70.08
2022-12-12T03:10:43.081Z,69.28
2022-12-12T03:13:54.335Z,69.18
2022-12-12T03:17:05.770Z,69.18
2022-12-12T03:20:17.094Z,69.67
2022-12-12T03:23:25.944Z,69.28
2022-12-12T03:26:32.770Z,69.41
2022-12-12T03:29:43.118Z,69.68
2022-12-12T03:32:53.579Z,70.67
2022-12-12T03:36:04.704Z,70.52
2022-12-12T03:39:14.235Z,70.75
2022-12-12T03:42:24.189Z,70.92
2022-12-12T03:45:34.087Z,70.08
2022-12-12T03:48:42.228Z,70.29
2022-12-12T03:51:53.425Z,71.13
2022-12-12T03:55:03.771Z,71.30
2022-12-12T03:58:12.970Z,71.48
2022-12-12T04:01:19.103Z,70.75
2022-12-12T04:04:29.996Z,70.70
2022-12-12T04:07:41.730Z,70.31
2022-12-12T04:11:06.752Z,70.01
2022-12-12T04:14:22.856Z,69.76
2022-12-12T04:17:33.643Z,69.39
2022-12-12T04:21:01.739Z,69.29
2022-12-12T04:24:18.360Z,69.25
2022-12-12T04:27:27.234Z,69.37
2022-12-12T04:30:33.252Z,69.57
2022-12-12T04:33:43.934Z,68.90
2022-12-12T04:36:49.178Z,68.77
2022-12-12T04:39:57.500Z,68.96
2022-12-12T04:43:07.236Z,70.13
2022-12-12T04:46:15.345Z,70.56
2022-12-12T04:49:23.075Z,71.44
2022-12-12T04:52:28.057Z,72.60
2022-12-12T04:55:37.437Z,74.09
2022-12-12T04:58:42.063Z,72.37
2022-12-12T05:01:53.432Z,72.34
2022-12-12T05:05:01.409Z,72.05
2022-12-12T05:08:09.797Z,72.40
2022-12-12T05:11:16.356Z,72.80
2022-12-12T05:14:21.060Z,72.96
2022-12-12T05:17:29.260Z,72.88
2022-12-12T05:20:33.255Z,72.79
2022-12-12T05:23:37.056Z,73.70
2022-12-12T05:26:42.765Z,73.43
2022-12-12T05:29:46.529Z,73.19
2022-12-12T05:32:50.838Z,72.90
2022-12-12T05:35:54.640Z,72.75
2022-12-12T05:38:58.421Z,72.80
2022-12-12T05:42:03.837Z,73.02
2022-12-12T05:45:09.338Z,73.49
2022-12-12T05:48:13.195Z,73.62
2022-12-12T05:51:17.076Z,73.22
2022-12-12T05:54:21.029Z,73.02
2022-12-12T05:57:26.378Z,74.97
2022-12-12T06:00:30.409Z,74.47
2022-12-12T06:03:34.674Z,73.83
2022-12-12T06:06:38.756Z,74.22
2022-12-12T06:09:42.635Z,74.47
2022-12-12T06:12:47.935Z,73.68
2022-12-12T06:15:51.780Z,74.42
2022-12-12T06:18:57.216Z,75.40
2022-12-12T06:22:01.113Z,74.80
2022-12-12T06:25:05.455Z,73.02
2022-12-12T06:28:10.816Z,74.17
2022-12-12T06:31:15.882Z,74.29
2022-12-12T06:34:19.857Z,74.38
2022-12-12T06:37:23.869Z,74.49
2022-12-12T06:40:27.735Z,75.58
2022-12-12T06:43:33.055Z,75.69
2022-12-12T06:46:37.048Z,75.68
2022-12-12T06:49:40.936Z,74.54
2022-12-12T06:52:44.770Z,74.92
2022-12-12T06:55:48.468Z,73.38
2022-12-12T06:58:54.555Z,72.65
2022-12-12T07:01:58.835Z,73.26
2022-12-12T07:05:03.257Z,73.75
2022-12-12T07:08:07.132Z,74.05
2022-12-12T07:11:15.038Z,73.22
2022-12-12T07:14:20.369Z,72.56
2022-12-12T07:17:24.189Z,71.48
2022-12-12T07:20:27.990Z,70.01
2022-12-12T07:23:31.903Z,70.36
2022-12-12T07:26:35.755Z,68.69
2022-12-12T07:29:41.157Z,69.90
2022-12-12T07:32:45.197Z,70.85
2022-12-12T07:35:49.177Z,70.41
2022-12-12T07:38:53.009Z,69.83
2022-12-12T07:41:56.815Z,69.79
2022-12-12T07:45:02.629Z,70.39
2022-12-12T07:48:06.724Z,70.26
2022-12-12T07:51:10.870Z,70.37
2022-12-12T07:54:14.776Z,70.17
2022-12-12T07:57:18.625Z,70.61
2022-12-12T08:00:24.489Z,71.04
2022-12-12T08:03:28.649Z,71.07
2022-12-12T08:06:32.592Z,69.79
2022-12-12T08:09:38.009Z,69.38
2022-12-12T08:12:42.036Z,69.02
2022-12-12T08:15:47.530Z,67.85
2022-12-12T08:18:51.850Z,67.92
2022-12-12T08:21:55.869Z,67.76
2022-12-12T08:24:59.668Z,68.23
2022-12-12T08:28:03.628Z,68.14
2022-12-12T08:31:09.091Z,68.62
2022-12-12T08:34:13.375Z,68.68
2022-12-12T08:37:17.256Z,69.38
2022-12-12T08:40:21.564Z,68.28
2022-12-12T08:43:25.558Z,67.58
2022-12-12T08:46:31.771Z,67.86
2022-12-12T08:49:35.730Z,68.72
2022-12-12T08:52:39.610Z,68.10
2022-12-12T08:55:43.537Z,68.42
2022-12-12T08:58:48.033Z,67.47
2022-12-12T09:01:53.399Z,66.54
2022-12-12T09:04:57.416Z,66.18
2022-12-12T09:08:01.268Z,65.72
2022-12-12T09:11:05.575Z,65.60
2022-12-12T09:14:09.390Z,64.18
2022-12-12T09:17:14.669Z,63.05
2022-12-12T09:20:18.679Z,63.35
2022-12-12T09:23:23.910Z,62.82
2022-12-12T09:26:27.869Z,62.23
2022-12-12T09:29:32.090Z,62.33
2022-12-12T09:32:37.610Z,61.12
2022-12-12T09:35:41.469Z,59.72
2022-12-12T09:38:45.869Z,58.51
2022-12-12T09:41:49.677Z,58.14
2022-12-12T09:44:57.911Z,58.03
2022-12-12T09:48:07.018Z,59.50
2022-12-12T09:51:12.159Z,58.55
2022-12-12T09:54:18.132Z,58.54
2022-12-12T09:57:29.590Z,57.73
2022-12-12T10:00:38.494Z,56.69
2022-12-12T10:03:57.776Z,56.14
2022-12-12T10:07:08.196Z,55.47
2022-12-12T10:10:23.360Z,55.40
2022-12-12T10:13:31.097Z,53.95
2022-12-12T10:16:35.231Z,53.22
2022-12-12T10:19:49.990Z,53.24
2022-12-12T10:23:00.956Z,52.78
2022-12-12T10:26:08.811Z,52.41
2022-12-12T10:29:15.997Z,51.15
2022-12-12T10:32:33.689Z,51.46
2022-12-12T10:35:47.076Z,51.71
2022-12-12T10:39:09.131Z,51.37
2022-12-12T10:42:21.736Z,51.16
2022-12-12T10:45:42.156Z,50.91
2022-12-12T10:48:47.256Z,50.50
2022-12-12T10:51:54.138Z,50.67
2022-12-12T10:55:01.585Z,49.69
2022-12-12T10:58:06.709Z,49.64
2022-12-12T11:01:33.038Z,49.29
2022-12-12T11:04:46.731Z,50.11
2022-12-12T11:08:03.091Z,48.87
2022-12-12T11:11:10.011Z,48.78
2022-12-12T11:14:28.677Z,49.11
2022-12-12T11:17:35.016Z,51.47
2022-12-12T11:20:46.810Z,50.06
2022-12-12T11:23:55.456Z,49.59
2022-12-12T11:27:02.138Z,48.91
2022-12-12T11:30:09.335Z,49.17
2022-12-12T11:33:20.859Z,50.44
2022-12-12T11:36:29.789Z,50.80
2022-12-12T11:39:42.998Z,51.77
2022-12-12T11:42:46.738Z,52.25
2022-12-12T11:46:04.088Z,52.92
2022-12-12T11:49:20.258Z,54.79
2022-12-12T11:52:27.776Z,54.83
2022-12-12T11:55:39.975Z,54.86
2022-12-12T11:58:51.950Z,54.99
2022-12-12T12:02:07.057Z,56.48
2022-12-12T12:05:22.316Z,56.84
2022-12-12T12:08:45.376Z,57.32
2022-12-12T12:12:02.816Z,57.60
2022-12-12T12:15:29.975Z,58.91
2022-12-12T12:18:52.695Z,59.18
2022-12-12T12:22:09.189Z,59.45
2022-12-12T12:25:34.190Z,60.16
2022-12-12T12:29:04.329Z,61.74
2022-12-12T12:32:19.831Z,61.72
2022-12-12T12:35:31.477Z,62.40
2022-12-12T12:39:05.139Z,62.61
2022-12-12T12:42:22.297Z,62.99
2022-12-12T12:45:38.570Z,63.20
2022-12-12T12:48:46.051Z,62.80
2022-12-12T12:51:56.364Z,62.89
2022-12-12T12:55:02.872Z,62.90
2022-12-12T12:58:08.357Z,62.80
2022-12-12T13:01:18.380Z,63.58
2022-12-12T13:04:26.829Z,63.88
2022-12-12T13:07:40.708Z,63.97
2022-12-12T13:10:49.775Z,64.80
2022-12-12T13:13:56.718Z,65.51
2022-12-12T13:17:07.251Z,65.78
2022-12-12T13:20:17.317Z,65.25
2022-12-12T13:23:37.814Z,64.97
2022-12-12T13:26:49.977Z,65.07
2022-12-12T13:30:00.869Z,65.99
2022-12-12T13:33:17.369Z,66.61
2022-12-12T13:36:29.341Z,66.27
2022-12-12T13:39:36.849Z,66.80
2022-12-12T13:42:55.936Z,67.20
2022-12-12T13:46:01.277Z,67.26
2022-12-12T13:49:28.830Z,68.03
2022-12-12T13:52:35.288Z,67.89
2022-12-12T13:55:39.889Z,68.07
2022-12-12T13:58:43.772Z,68.13
2022-12-12T14:01:48.741Z,68.04
2022-12-12T14:05:10.956Z,68.36
2022-12-12T14:08:29.298Z,69.51
2022-12-12T14:11:37.712Z,69.55
2022-12-12T14:14:42.977Z,69.75
2022-12-12T14:17:55.352Z,70.09
2022-12-12T14:21:03.784Z,70.28
2022-12-12T14:24:47.802Z,70.00
2022-12-12T14:28:17.256Z,70.02
2022-12-12T14:31:21.540Z,69.62
2022-12-12T14:34:31.947Z,69.95
2022-12-12T14:37:51.597Z,70.32
2022-12-12T14:41:00.855Z,70.09
2022-12-12T14:44:36.077Z,69.75
2022-12-12T14:47:33.998Z,69.79
2022-12-12T14:50:38.969Z,70.53
2022-12-12T14:53:55.630Z,71.21
2022-12-12T14:57:01.609Z,71.87
2022-12-12T15:00:06.636Z,73.48
2022-12-12T15:03:10.816Z,72.07
2022-12-12T15:06:29.861Z,71.74
2022-12-12T15:09:36.870Z,71.28
2022-12-12T15:12:46.029Z,71.46
2022-12-12T15:15:52.340Z,71.40
2022-12-12T15:18:57.833Z,71.75
2022-12-12T15:22:01.976Z,72.25
2022-12-12T15:25:19.170Z,72.22
2022-12-12T15:28:26.697Z,72.67
2022-12-12T15:31:31.023Z,72.84
2022-12-12T15:34:40.457Z,73.17
2022-12-12T15:37:44.736Z,73.06
2022-12-12T15:40:53.217Z,73.70
2022-12-12T15:43:57.417Z,74.97
2022-12-12T15:47:01.663Z,74.22
2022-12-12T15:50:14.705Z,74.86
2022-12-12T15:53:23.109Z,73.48
2022-12-12T15:56:30.416Z,73.16
2022-12-12T15:59:35.369Z,73.38
2022-12-12T16:02:41.031Z,73.50
2022-12-12T16:05:45.477Z,73.50
2022-12-12T16:08:54.412Z,73.47
2022-12-12T16:12:00.379Z,73.80
2022-12-12T16:15:20.170Z,73.97
2022-12-12T16:18:25.775Z,74.56
2022-12-12T16:21:30.336Z,74.85
2022-12-12T16:24:34.704Z,74.94
2022-12-12T16:27:40.269Z,74.04
2022-12-12T16:30:46.750Z,73.84
2022-12-12T16:33:50.651Z,73.82
2022-12-12T16:36:54.510Z,74.15
2022-12-12T16:39:58.894Z,74.93
2022-12-12T16:43:10.964Z,75.22
2022-12-12T16:46:20.584Z,75.06
2022-12-12T16:49:24.583Z,73.86
2022-12-12T16:52:28.595Z,73.85
2022-12-12T16:55:32.920Z,73.69
2022-12-12T16:58:38.680Z,74.01
2022-12-12T17:01:42.600Z,74.97
2022-12-12T17:04:46.777Z,74.89
2022-12-12T17:07:51.246Z,74.76
2022-12-12T17:11:10.606Z,74.72
2022-12-12T17:14:22.430Z,74.13
2022-12-12T17:17:26.316Z,74.87
2022-12-12T17:20:37.522Z,74.95
2022-12-12T17:23:42.336Z,74.74
2022-12-12T17:26:46.169Z,75.82
2022-12-12T17:29:51.624Z,76.13
2022-12-12T17:36:17.450Z,76.22
2022-12-12T17:39:21.438Z,75.96
2022-12-12T17:42:25.311Z,75.88
2022-12-12T17:45:30.848Z,75.50
2022-12-12T17:48:37.376Z,76.21
2022-12-12T17:51:41.190Z,75.79
2022-12-12T17:55:53.154Z,75.35
2022-12-12T17:58:08.916Z,75.42
2022-12-12T18:01:17.108Z,75.57
2022-12-12T18:04:27.389Z,75.55
2022-12-12T18:07:32.148Z,75.23
2022-12-12T18:10:38.683Z,75.61
2022-12-12T18:13:43.741Z,75.76
2022-12-12T18:16:53.401Z,76.58
2022-12-12T18:19:57.375Z,76.49
2022-12-12T18:23:01.222Z,76.68
2022-12-12T18:26:06.311Z,76.32
2022-12-12T18:29:13.010Z,76.52
2022-12-12T18:32:18.377Z,78.14
2022-12-12T18:35:22.189Z,79.85
2022-12-12T18:38:26.196Z,80.91
2022-12-12T18:41:31.895Z,79.06
2022-12-12T18:44:35.923Z,78.02
2022-12-12T18:47:41.217Z,77.52
2022-12-12T18:50:45.196Z,78.76
2022-12-12T18:53:49.108Z,82.97
2022-12-12T18:56:53.081Z,82.64
2022-12-12T18:59:57.916Z,81.18
2022-12-12T19:03:03.132Z,80.72
2022-12-12T19:06:07.837Z,80.91
2022-12-12T19:09:14.808Z,80.33
2022-12-12T19:12:18.976Z,80.89
2022-12-12T19:15:22.915Z,80.91
2022-12-12T19:18:28.180Z,80.88
2022-12-12T19:21:33.970Z,83.08
2022-12-12T19:24:41.209Z,82.57
2022-12-12T19:27:45.500Z,83.06
2022-12-12T19:30:49.414Z,81.73
2022-12-12T19:33:55.290Z,82.90
2022-12-12T19:36:59.489Z,82.37
2022-12-12T19:40:03.557Z,81.74
2022-12-12T19:43:07.497Z,82.12
2022-12-12T19:46:13.551Z,82.00
2022-12-12T19:49:19.055Z,81.97
2022-12-12T19:52:22.996Z,83.08
2022-12-12T19:55:27.009Z,85.02
2022-12-12T19:58:35.143Z,85.13
2022-12-12T20:01:43.264Z,86.62
2022-12-12T20:04:48.829Z,88.87
2022-12-12T20:07:52.738Z,88.67
2022-12-12T20:10:56.535Z,89.57
2022-12-12T20:14:01.884Z,89.64
2022-12-12T20:17:06.316Z,89.11
2022-12-12T20:20:12.738Z,89.91
2022-12-12T20:23:16.770Z,87.47
2022-12-12T20:26:22.629Z,89.01
2022-12-12T20:29:26.635Z,90.35
2022-12-12T20:32:30.835Z,90.13
2022-12-12T20:35:37.277Z,91.86
2022-12-12T20:38:41.590Z,93.00
2022-12-12T20:41:46.409Z,93.28
2022-12-12T20:44:51.056Z,93.39
2022-12-12T20:47:55.032Z,94.63
2022-12-12T20:51:01.169Z,94.99
2022-12-12T20:54:07.053Z,94.92
2022-12-12T20:57:11.029Z,94.80
2022-12-12T21:00:15.463Z,96.87
2022-12-12T21:03:19.631Z,96.88
2022-12-12T21:06:27.008Z,95.91
2022-12-12T21:09:30.830Z,95.39
2022-12-12T21:12:34.936Z,93.68
2022-12-12T21:15:39.257Z,93.38
2022-12-12T21:18:43.377Z,92.07
2022-12-12T21:21:48.668Z,91.49
2022-12-12T21:24:52.637Z,91.68
2022-12-12T21:27:57.409Z,91.63
2022-12-12T21:31:01.858Z,92.39
2022-12-12T21:34:06.978Z,91.43
2022-12-12T21:37:13.978Z,90.02
2022-12-12T21:40:17.870Z,91.73
2022-12-12T21:43:22.089Z,90.45
2022-12-12T21:46:27.645Z,90.01
2022-12-12T21:49:32.289Z,89.97
2022-12-12T21:52:37.644Z,90.95
2022-12-12T21:55:42.289Z,91.53
2022-12-12T21:58:47.794Z,91.43
2022-12-12T22:01:52.033Z,90.61
2022-12-12T22:04:55.929Z,90.89
2022-12-12T22:08:01.408Z,92.71
2022-12-12T22:11:05.564Z,94.19
2022-12-12T22:14:10.829Z,92.89
2022-12-12T22:17:14.489Z,92.01
2022-12-12T22:20:18.477Z,92.54
2022-12-12T22:23:24.145Z,92.45
2022-12-12T22:26:30.296Z,93.33
2022-12-12T22:29:34.097Z,92.36
2022-12-12T22:32:37.911Z,91.13
2022-12-12T22:35:41.870Z,90.03
2022-12-12T22:38:47.144Z,89.73
2022-12-12T22:41:51.679Z,88.99
2022-12-12T22:44:55.569Z,89.37
2022-12-12T22:47:59.377Z,88.43
2022-12-12T22:51:13.650Z,88.09
2022-12-12T22:54:19.658Z,88.01
2022-12-12T22:57:23.693Z,87.85
2022-12-12T23:00:27.696Z,88.19
2022-12-12T23:03:32.737Z,88.13
2022-12-12T23:06:37.490Z,87.07
2022-12-12T23:09:52.709Z,86.00
2022-12-12T23:12:56.629Z,85.57
2022-12-12T23:16:00.621Z,85.63
2022-12-12T23:19:06.597Z,85.86
2022-12-12T23:22:10.790Z,85.92
2022-12-12T23:25:16.467Z,85.17
2022-12-12T23:28:20.512Z,86.08
2022-12-12T23:31:27.313Z,84.31
2022-12-12T23:34:32.269Z,85.02
2022-12-12T23:37:36.117Z,83.95
2022-12-12T23:40:41.525Z,82.93
2022-12-12T23:43:46.456Z,81.96
2022-12-12T23:46:51.516Z,83.09
2022-12-12T23:49:55.357Z,82.69
2022-12-12T23:52:59.776Z,83.16
2022-12-12T23:56:06.679Z,82.73
2022-12-12T23:59:16.881Z,82.50
